sensor_id;sensor_type;location;lat;lon;timestamp;pressure;altitude;pressure_sealevel;temperature;humidity
11345;BME280;5727;42.600;23.028;2022-11-02T00:00:11;94382.56;;;10.14;100.00
11345;BME280;5727;42.600;23.028;2022-11-02T00:02:39;94374.78;;;10.09;100.00
11345;BME280;5727;42.600;23.028;2022-11-02T00:05:09;94377.41;;;10.09;100.00
11345;BME280;5727;42.600;23.028;2022-11-02T00:07:36;94372.34;;;10.04;100.00
11345;BME280;5727;42.600;23.028;2022-11-02T00:10:04;94377.09;;;10.02;100.00
11345;BME280;5727;42.600;23.028;2022-11-02T00:12:31;94379.56;;;9.98;100.00
11345;BME280;5727;42.600;23.028;2022-11-02T00:14:59;94374.16;;;9.95;100.00
11345;BME280;5727;42.600;23.028;2022-11-02T00:17:25;94372.75;;;9.89;100.00
11345;BME280;5727;42.600;23.028;2022-11-02T00:19:53;94374.28;;;9.90;100.00
11345;BME280;5727;42.600;23.028;2022-11-02T00:22:20;94377.38;;;9.83;100.00
11345;BME280;5727;42.600;23.028;2022-11-02T00:24:48;94375.03;;;9.82;100.00
11345;BME280;5727;42.600;23.028;2022-11-02T00:27:14;94372.72;;;9.80;100.00
11345;BME280;5727;42.600;23.028;2022-11-02T00:29:41;94373.34;;;9.77;100.00
11345;BME280;5727;42.600;23.028;2022-11-02T00:32:09;94372.56;;;9.77;100.00
11345;BME280;5727;42.600;23.028;2022-11-02T00:34:36;94375.50;;;9.75;100.00
11345;BME280;5727;42.600;23.028;2022-11-02T00:37:03;94372.06;;;9.66;100.00
11345;BME280;5727;42.600;23.028;2022-11-02T00:39:30;94370.69;;;9.69;100.00
11345;BME280;5727;42.600;23.028;2022-11-02T00:41:56;94375.63;;;9.70;100.00
11345;BME280;5727;42.600;23.028;2022-11-02T00:44:23;94368.84;;;9.69;100.00
11345;BME280;5727;42.600;23.028;2022-11-02T00:46:51;94371.00;;;9.67;100.00
11345;BME280;5727;42.600;23.028;2022-11-02T00:49:19;94370.22;;;9.67;100.00
11345;BME280;5727;42.600;23.028;2022-11-02T00:51:45;94365.28;;;9.65;100.00
11345;BME280;5727;42.600;23.028;2022-11-02T00:54:12;94371.44;;;9.61;100.00
11345;BME280;5727;42.600;23.028;2022-11-02T00:56:39;94373.88;;;9.57;100.00
11345;BME280;5727;42.600;23.028;2022-11-02T00:59:05;94371.56;;;9.56;100.00
11345;BME280;5727;42.600;23.028;2022-11-02T01:01:32;94371.88;;;9.54;100.00
11345;BME280;5727;42.600;23.028;2022-11-02T01:03:59;94370.94;;;9.50;100.00
11345;BME280;5727;42.600;23.028;2022-11-02T01:06:27;94381.72;;;9.49;100.00
11345;BME280;5727;42.600;23.028;2022-11-02T01:08:54;94377.06;;;9.46;100.00
11345;BME280;5727;42.600;23.028;2022-11-02T01:11:22;94368.75;;;9.44;100.00
11345;BME280;5727;42.600;23.028;2022-11-02T01:13:49;94363.50;;;9.44;100.00
11345;BME280;5727;42.600;23.028;2022-11-02T01:16:17;94364.91;;;9.41;100.00
11345;BME280;5727;42.600;23.028;2022-11-02T01:18:43;94366.44;;;9.42;100.00
11345;BME280;5727;42.600;23.028;2022-11-02T01:21:10;94367.81;;;9.40;100.00
11345;BME280;5727;42.600;23.028;2022-11-02T01:23:38;94370.25;;;9.36;100.00
11345;BME280;5727;42.600;23.028;2022-11-02T01:26:06;94370.56;;;9.35;100.00
11345;BME280;5727;42.600;23.028;2022-11-02T01:28:34;94365.94;;;9.32;100.00
11345;BME280;5727;42.600;23.028;2022-11-02T01:31:01;94365.00;;;9.28;100.00
11345;BME280;5727;42.600;23.028;2022-11-02T01:33:28;94361.13;;;9.25;100.00
11345;BME280;5727;42.600;23.028;2022-11-02T01:35:54;94364.06;;;9.23;100.00
11345;BME280;5727;42.600;23.028;2022-11-02T01:38:21;94360.97;;;9.21;100.00
11345;BME280;5727;42.600;23.028;2022-11-02T01:40:49;94357.88;;;9.19;100.00
11345;BME280;5727;42.600;23.028;2022-11-02T01:43:18;94359.84;;;9.14;100.00
11345;BME280;5727;42.600;23.028;2022-11-02T01:45:45;94354.91;;;9.12;100.00
11345;BME280;5727;42.600;23.028;2022-11-02T01:48:13;94354.16;;;9.12;100.00
11345;BME280;5727;42.600;23.028;2022-11-02T01:50:40;94351.38;;;9.08;100.00
11345;BME280;5727;42.600;23.028;2022-11-02T01:53:07;94353.78;;;9.05;100.00
11345;BME280;5727;42.600;23.028;2022-11-02T01:55:34;94358.28;;;9.04;100.00
11345;BME280;5727;42.600;23.028;2022-11-02T01:58:06;94359.47;;;8.98;100.00
11345;BME280;5727;42.600;23.028;2022-11-02T02:00:34;94357.44;;;8.95;100.00
11345;BME280;5727;42.600;23.028;2022-11-02T02:03:06;94346.97;;;8.95;100.00
11345;BME280;5727;42.600;23.028;2022-11-02T02:05:37;94350.19;;;8.92;100.00
11345;BME280;5727;42.600;23.028;2022-11-02T02:08:04;94352.03;;;8.92;100.00
11345;BME280;5727;42.600;23.028;2022-11-02T02:10:33;94347.88;;;8.91;100.00
11345;BME280;5727;42.600;23.028;2022-11-02T02:13:00;94354.94;;;8.90;100.00
11345;BME280;5727;42.600;23.028;2022-11-02T02:15:37;94343.06;;;8.84;100.00
11345;BME280;5727;42.600;23.028;2022-11-02T02:18:10;94349.47;;;8.78;100.00
11345;BME280;5727;42.600;23.028;2022-11-02T02:20:56;94341.81;;;8.82;100.00
11345;BME280;5727;42.600;23.028;2022-11-02T02:23:43;94348.59;;;8.83;100.00
11345;BME280;5727;42.600;23.028;2022-11-02T02:29:20;94340.13;;;8.77;100.00
11345;BME280;5727;42.600;23.028;2022-11-02T02:31:53;94345.28;;;8.69;100.00
11345;BME280;5727;42.600;23.028;2022-11-02T02:34:24;94344.06;;;8.66;100.00
11345;BME280;5727;42.600;23.028;2022-11-02T02:36:56;94345.22;;;8.60;100.00
11345;BME280;5727;42.600;23.028;2022-11-02T02:39:28;94340.19;;;8.64;100.00
11345;BME280;5727;42.600;23.028;2022-11-02T02:42:00;94344.63;;;8.63;100.00
11345;BME280;5727;42.600;23.028;2022-11-02T02:44:35;94340.97;;;8.64;100.00
11345;BME280;5727;42.600;23.028;2022-11-02T02:47:07;94345.41;;;8.64;100.00
11345;BME280;5727;42.600;23.028;2022-11-02T02:49:39;94335.53;;;8.61;100.00
11345;BME280;5727;42.600;23.028;2022-11-02T02:52:08;94336.78;;;8.63;100.00
11345;BME280;5727;42.600;23.028;2022-11-02T02:54:37;94335.25;;;8.62;100.00
11345;BME280;5727;42.600;23.028;2022-11-02T02:57:08;94333.69;;;8.61;100.00
11345;BME280;5727;42.600;23.028;2022-11-02T02:59:39;94338.16;;;8.61;100.00
11345;BME280;5727;42.600;23.028;2022-11-02T03:02:11;94328.78;;;8.60;100.00
11345;BME280;5727;42.600;23.028;2022-11-02T03:04:39;94335.34;;;8.57;100.00
11345;BME280;5727;42.600;23.028;2022-11-02T03:07:07;94336.44;;;8.56;100.00
11345;BME280;5727;42.600;23.028;2022-11-02T03:09:40;94334.88;;;8.55;100.00
11345;BME280;5727;42.600;23.028;2022-11-02T03:12:20;94335.50;;;8.52;100.00
11345;BME280;5727;42.600;23.028;2022-11-02T03:15:06;94335.19;;;8.54;100.00
11345;BME280;5727;42.600;23.028;2022-11-02T03:17:45;94339.16;;;8.51;100.00
11345;BME280;5727;42.600;23.028;2022-11-02T03:20:21;94342.72;;;8.55;100.00
11345;BME280;5727;42.600;23.028;2022-11-02T03:23:02;94335.50;;;8.52;100.00
11345;BME280;5727;42.600;23.028;2022-11-02T03:25:40;94338.09;;;8.52;100.00
11345;BME280;5727;42.600;23.028;2022-11-02T03:28:13;94347.28;;;8.50;100.00
11345;BME280;5727;42.600;23.028;2022-11-02T03:30:45;94343.16;;;8.49;100.00
11345;BME280;5727;42.600;23.028;2022-11-02T03:33:18;94341.41;;;8.44;100.00
11345;BME280;5727;42.600;23.028;2022-11-02T03:35:51;94335.72;;;8.42;100.00
11345;BME280;5727;42.600;23.028;2022-11-02T03:38:23;94342.03;;;8.41;100.00
11345;BME280;5727;42.600;23.028;2022-11-02T03:40:51;94347.25;;;8.41;100.00
11345;BME280;5727;42.600;23.028;2022-11-02T03:43:20;94332.78;;;8.21;100.00
11345;BME280;5727;42.600;23.028;2022-11-02T03:45:52;94335.38;;;8.21;100.00
11345;BME280;5727;42.600;23.028;2022-11-02T03:48:22;94331.25;;;8.07;100.00
11345;BME280;5727;42.600;23.028;2022-11-02T03:50:51;94335.44;;;7.94;100.00
11345;BME280;5727;42.600;23.028;2022-11-02T03:53:22;94326.75;;;7.99;100.00
11345;BME280;5727;42.600;23.028;2022-11-02T03:55:55;94332.03;;;8.07;100.00
11345;BME280;5727;42.600;23.028;2022-11-02T03:58:42;94335.63;;;7.98;100.00
11345;BME280;5727;42.600;23.028;2022-11-02T04:01:11;94331.69;;;7.87;100.00
11345;BME280;5727;42.600;23.028;2022-11-02T04:03:42;94338.34;;;7.93;100.00
11345;BME280;5727;42.600;23.028;2022-11-02T04:06:10;94341.63;;;7.98;100.00
11345;BME280;5727;42.600;23.028;2022-11-02T04:08:39;94340.28;;;8.01;100.00
11345;BME280;5727;42.600;23.028;2022-11-02T04:11:07;94338.00;;;7.72;100.00
11345;BME280;5727;42.600;23.028;2022-11-02T04:13:51;94339.25;;;7.75;100.00
11345;BME280;5727;42.600;23.028;2022-11-02T04:16:37;94337.41;;;7.75;100.00
11345;BME280;5727;42.600;23.028;2022-11-02T04:19:04;94334.97;;;7.79;100.00
11345;BME280;5727;42.600;23.028;2022-11-02T04:21:48;94334.41;;;7.82;100.00
11345;BME280;5727;42.600;23.028;2022-11-02T04:24:29;94333.81;;;7.85;100.00
11345;BME280;5727;42.600;23.028;2022-11-02T04:27:10;94340.56;;;7.86;100.00
11345;BME280;5727;42.600;23.028;2022-11-02T04:29:37;94345.41;;;7.79;100.00
11345;BME280;5727;42.600;23.028;2022-11-02T04:32:05;94339.63;;;7.82;100.00
11345;BME280;5727;42.600;23.028;2022-11-02T04:34:32;94336.53;;;7.80;100.00
11345;BME280;5727;42.600;23.028;2022-11-02T04:36:57;94336.06;;;7.78;100.00
11345;BME280;5727;42.600;23.028;2022-11-02T04:39:24;94333.94;;;7.80;100.00
11345;BME280;5727;42.600;23.028;2022-11-02T04:41:50;94333.44;;;7.78;100.00
11345;BME280;5727;42.600;23.028;2022-11-02T04:44:17;94331.31;;;7.80;100.00
11345;BME280;5727;42.600;23.028;2022-11-02T04:46:43;94340.97;;;7.79;100.00
11345;BME280;5727;42.600;23.028;2022-11-02T04:49:11;94339.16;;;7.80;100.00
11345;BME280;5727;42.600;23.028;2022-11-02T04:51:38;94336.63;;;7.75;100.00
11345;BME280;5727;42.600;23.028;2022-11-02T04:54:06;94350.44;;;7.75;100.00
11345;BME280;5727;42.600;23.028;2022-11-02T04:56:32;94344.44;;;7.75;100.00
11345;BME280;5727;42.600;23.028;2022-11-02T04:59:00;94348.03;;;7.65;100.00
11345;BME280;5727;42.600;23.028;2022-11-02T05:01:28;94355.31;;;7.55;100.00
11345;BME280;5727;42.600;23.028;2022-11-02T05:03:55;94358.09;;;7.45;100.00
11345;BME280;5727;42.600;23.028;2022-11-02T05:06:23;94359.53;;;7.51;100.00
11345;BME280;5727;42.600;23.028;2022-11-02T05:08:50;94362.81;;;7.56;100.00
11345;BME280;5727;42.600;23.028;2022-11-02T05:11:18;94354.91;;;7.61;100.00
11345;BME280;5727;42.600;23.028;2022-11-02T05:13:45;94350.66;;;7.65;100.00
11345;BME280;5727;42.600;23.028;2022-11-02T05:16:13;94352.69;;;7.68;100.00
11345;BME280;5727;42.600;23.028;2022-11-02T05:18:40;94356.25;;;7.72;100.00
11345;BME280;5727;42.600;23.028;2022-11-02T05:21:08;94361.84;;;7.66;100.00
11345;BME280;5727;42.600;23.028;2022-11-02T05:23:37;94358.66;;;7.69;100.00
11345;BME280;5727;42.600;23.028;2022-11-02T05:26:06;94354.22;;;7.69;100.00
11345;BME280;5727;42.600;23.028;2022-11-02T05:28:33;94364.34;;;7.71;100.00
11345;BME280;5727;42.600;23.028;2022-11-02T05:31:00;94377.13;;;7.72;100.00
11345;BME280;5727;42.600;23.028;2022-11-02T05:33:28;94377.59;;;7.74;100.00
11345;BME280;5727;42.600;23.028;2022-11-02T05:35:56;94381.38;;;7.82;100.00
11345;BME280;5727;42.600;23.028;2022-11-02T05:38:23;94389.09;;;7.87;100.00
11345;BME280;5727;42.600;23.028;2022-11-02T05:40:52;94387.75;;;7.89;100.00
11345;BME280;5727;42.600;23.028;2022-11-02T05:43:19;94387.63;;;7.94;100.00
11345;BME280;5727;42.600;23.028;2022-11-02T05:45:50;94390.59;;;8.01;100.00
11345;BME280;5727;42.600;23.028;2022-11-02T05:48:18;94400.97;;;8.06;100.00
11345;BME280;5727;42.600;23.028;2022-11-02T05:50:45;94398.53;;;8.10;100.00
11345;BME280;5727;42.600;23.028;2022-11-02T05:53:12;94403.06;;;8.18;100.00
11345;BME280;5727;42.600;23.028;2022-11-02T05:55:38;94400.63;;;8.21;100.00
11345;BME280;5727;42.600;23.028;2022-11-02T05:58:06;94406.06;;;8.25;100.00
11345;BME280;5727;42.600;23.028;2022-11-02T06:00:33;94402.69;;;8.24;100.00
11345;BME280;5727;42.600;23.028;2022-11-02T06:03:00;94409.34;;;8.30;100.00
11345;BME280;5727;42.600;23.028;2022-11-02T06:05:27;94397.72;;;8.37;100.00
11345;BME280;5727;42.600;23.028;2022-11-02T06:07:56;94407.88;;;8.38;100.00
11345;BME280;5727;42.600;23.028;2022-11-02T06:10:23;94403.22;;;8.49;100.00
11345;BME280;5727;42.600;23.028;2022-11-02T06:12:53;94408.50;;;8.57;100.00
11345;BME280;5727;42.600;23.028;2022-11-02T06:15:21;94408.88;;;8.64;100.00
11345;BME280;5727;42.600;23.028;2022-11-02T06:17:48;94415.41;;;8.75;100.00
11345;BME280;5727;42.600;23.028;2022-11-02T06:20:16;94407.34;;;8.85;100.00
11345;BME280;5727;42.600;23.028;2022-11-02T06:22:43;94411.81;;;8.93;100.00
11345;BME280;5727;42.600;23.028;2022-11-02T06:25:10;94408.50;;;9.01;100.00
11345;BME280;5727;42.600;23.028;2022-11-02T06:27:37;94403.19;;;9.06;100.00
11345;BME280;5727;42.600;23.028;2022-11-02T06:30:07;94410.00;;;9.16;100.00
11345;BME280;5727;42.600;23.028;2022-11-02T06:32:35;94416.50;;;9.27;100.00
11345;BME280;5727;42.600;23.028;2022-11-02T06:35:02;94418.88;;;9.37;100.00
11345;BME280;5727;42.600;23.028;2022-11-02T06:37:32;94416.00;;;9.47;100.00
11345;BME280;5727;42.600;23.028;2022-11-02T06:39:58;94417.09;;;9.55;100.00
11345;BME280;5727;42.600;23.028;2022-11-02T06:42:25;94420.41;;;9.69;100.00
11345;BME280;5727;42.600;23.028;2022-11-02T06:44:52;94421.50;;;9.76;100.00
11345;BME280;5727;42.600;23.028;2022-11-02T06:47:19;94420.47;;;9.86;100.00
11345;BME280;5727;42.600;23.028;2022-11-02T06:49:47;94416.03;;;9.95;100.00
11345;BME280;5727;42.600;23.028;2022-11-02T06:52:14;94411.75;;;10.07;100.00
11345;BME280;5727;42.600;23.028;2022-11-02T06:54:41;94414.13;;;10.18;100.00
11345;BME280;5727;42.600;23.028;2022-11-02T06:57:08;94409.34;;;10.28;100.00
11345;BME280;5727;42.600;23.028;2022-11-02T06:59:35;94406.28;;;10.43;100.00
11345;BME280;5727;42.600;23.028;2022-11-02T07:02:02;94406.00;;;10.53;100.00
11345;BME280;5727;42.600;23.028;2022-11-02T07:04:28;94403.53;;;10.65;100.00
11345;BME280;5727;42.600;23.028;2022-11-02T07:06:57;94410.78;;;10.77;100.00
11345;BME280;5727;42.600;23.028;2022-11-02T07:09:24;94404.63;;;10.90;100.00
11345;BME280;5727;42.600;23.028;2022-11-02T07:11:51;94403.66;;;11.03;100.00
11345;BME280;5727;42.600;23.028;2022-11-02T07:14:17;94399.81;;;11.18;100.00
11345;BME280;5727;42.600;23.028;2022-11-02T07:16:44;94398.72;;;11.27;100.00
11345;BME280;5727;42.600;23.028;2022-11-02T07:19:11;94401.44;;;11.39;100.00
11345;BME280;5727;42.600;23.028;2022-11-02T07:21:37;94402.94;;;11.49;100.00
11345;BME280;5727;42.600;23.028;2022-11-02T07:24:06;94404.63;;;11.62;100.00
11345;BME280;5727;42.600;23.028;2022-11-02T07:26:33;94400.59;;;11.73;99.88
11345;BME280;5727;42.600;23.028;2022-11-02T07:29:00;94405.66;;;11.78;99.08
11345;BME280;5727;42.600;23.028;2022-11-02T07:31:26;94397.16;;;11.81;98.84
11345;BME280;5727;42.600;23.028;2022-11-02T07:33:53;94391.53;;;11.91;98.84
11345;BME280;5727;42.600;23.028;2022-11-02T07:36:20;94397.22;;;12.02;98.39
11345;BME280;5727;42.600;23.028;2022-11-02T07:38:47;94398.38;;;12.13;97.88
11345;BME280;5727;42.600;23.028;2022-11-02T07:41:15;94397.34;;;12.05;98.10
11345;BME280;5727;42.600;23.028;2022-11-02T07:43:42;94395.03;;;12.04;99.15
11345;BME280;5727;42.600;23.028;2022-11-02T07:46:08;94391.19;;;12.01;99.76
11345;BME280;5727;42.600;23.028;2022-11-02T07:48:35;94390.91;;;11.94;100.00
11345;BME280;5727;42.600;23.028;2022-11-02T07:51:02;94383.75;;;12.03;100.00
11345;BME280;5727;42.600;23.028;2022-11-02T07:53:30;94387.66;;;11.97;100.00
11345;BME280;5727;42.600;23.028;2022-11-02T07:55:58;94379.28;;;12.04;100.00
11345;BME280;5727;42.600;23.028;2022-11-02T07:58:26;94381.22;;;12.15;100.00
11345;BME280;5727;42.600;23.028;2022-11-02T08:00:56;94380.47;;;12.35;99.88
11345;BME280;5727;42.600;23.028;2022-11-02T08:03:23;94379.03;;;12.46;99.67
11345;BME280;5727;42.600;23.028;2022-11-02T08:05:49;94376.88;;;12.60;99.65
11345;BME280;5727;42.600;23.028;2022-11-02T08:08:18;94375.88;;;12.73;99.39
11345;BME280;5727;42.600;23.028;2022-11-02T08:10:46;94373.94;;;12.82;98.58
11345;BME280;5727;42.600;23.028;2022-11-02T08:13:15;94376.94;;;12.93;97.46
11345;BME280;5727;42.600;23.028;2022-11-02T08:15:44;94364.41;;;13.11;97.70
11345;BME280;5727;42.600;23.028;2022-11-02T08:18:12;94368.88;;;13.31;96.75
11345;BME280;5727;42.600;23.028;2022-11-02T08:20:39;94365.25;;;13.35;95.65
11345;BME280;5727;42.600;23.028;2022-11-02T08:23:08;94359.66;;;13.49;95.01
11345;BME280;5727;42.600;23.028;2022-11-02T08:25:35;94353.13;;;13.67;94.18
11345;BME280;5727;42.600;23.028;2022-11-02T08:28:03;94351.16;;;13.76;93.72
11345;BME280;5727;42.600;23.028;2022-11-02T08:30:31;94342.91;;;13.90;92.88
11345;BME280;5727;42.600;23.028;2022-11-02T08:33:03;94349.81;;;14.06;91.88
11345;BME280;5727;42.600;23.028;2022-11-02T08:35:29;94348.03;;;14.22;90.64
11345;BME280;5727;42.600;23.028;2022-11-02T08:37:57;94347.72;;;14.36;90.05
11345;BME280;5727;42.600;23.028;2022-11-02T08:40:25;94341.41;;;14.52;89.46
11345;BME280;5727;42.600;23.028;2022-11-02T08:42:55;94342.06;;;14.61;89.37
11345;BME280;5727;42.600;23.028;2022-11-02T08:45:21;94345.41;;;14.74;88.56
11345;BME280;5727;42.600;23.028;2022-11-02T08:47:50;94345.47;;;14.90;87.45
11345;BME280;5727;42.600;23.028;2022-11-02T08:50:18;94340.13;;;15.02;86.56
11345;BME280;5727;42.600;23.028;2022-11-02T08:52:45;94346.94;;;15.03;86.33
11345;BME280;5727;42.600;23.028;2022-11-02T08:55:11;94344.69;;;15.17;85.67
11345;BME280;5727;42.600;23.028;2022-11-02T08:57:45;94341.72;;;15.34;85.17
11345;BME280;5727;42.600;23.028;2022-11-02T09:00:13;94339.47;;;15.48;84.61
11345;BME280;5727;42.600;23.028;2022-11-02T09:02:40;94338.28;;;15.61;83.19
11345;BME280;5727;42.600;23.028;2022-11-02T09:05:08;94341.50;;;15.70;82.69
11345;BME280;5727;42.600;23.028;2022-11-02T09:07:36;94333.06;;;15.80;81.26
11345;BME280;5727;42.600;23.028;2022-11-02T09:10:04;94338.00;;;15.82;81.30
11345;BME280;5727;42.600;23.028;2022-11-02T09:12:32;94329.50;;;15.88;81.09
11345;BME280;5727;42.600;23.028;2022-11-02T09:14:58;94333.22;;;16.03;80.85
11345;BME280;5727;42.600;23.028;2022-11-02T09:17:25;94331.13;;;16.12;80.11
11345;BME280;5727;42.600;23.028;2022-11-02T09:19:52;94329.59;;;16.26;79.33
11345;BME280;5727;42.600;23.028;2022-11-02T09:22:18;94324.03;;;16.31;78.57
11345;BME280;5727;42.600;23.028;2022-11-02T09:24:46;94326.91;;;16.42;77.88
11345;BME280;5727;42.600;23.028;2022-11-02T09:27:13;94309.88;;;16.59;77.36
11345;BME280;5727;42.600;23.028;2022-11-02T09:29:40;94311.28;;;16.72;76.91
11345;BME280;5727;42.600;23.028;2022-11-02T09:32:07;94311.75;;;16.77;76.00
11345;BME280;5727;42.600;23.028;2022-11-02T09:34:33;94313.16;;;16.90;75.87
11345;BME280;5727;42.600;23.028;2022-11-02T09:37:00;94313.75;;;17.03;75.39
11345;BME280;5727;42.600;23.028;2022-11-02T09:39:27;94303.06;;;17.18;74.55
11345;BME280;5727;42.600;23.028;2022-11-02T09:42:02;94302.16;;;17.30;73.55
11345;BME280;5727;42.600;23.028;2022-11-02T09:44:40;94291.97;;;17.32;73.85
11345;BME280;5727;42.600;23.028;2022-11-02T09:47:10;94288.38;;;17.44;73.23
11345;BME280;5727;42.600;23.028;2022-11-02T09:49:38;94287.81;;;17.54;72.80
11345;BME280;5727;42.600;23.028;2022-11-02T09:52:12;94275.50;;;17.65;72.65
11345;BME280;5727;42.600;23.028;2022-11-02T09:54:43;94278.38;;;17.79;72.12
11345;BME280;5727;42.600;23.028;2022-11-02T09:57:14;94269.03;;;17.88;71.79
11345;BME280;5727;42.600;23.028;2022-11-02T09:59:42;94274.84;;;17.97;71.03
11345;BME280;5727;42.600;23.028;2022-11-02T10:02:17;94265.22;;;18.15;69.61
11345;BME280;5727;42.600;23.028;2022-11-02T10:05:01;94272.19;;;18.27;69.58
11345;BME280;5727;42.600;23.028;2022-11-02T10:07:39;94259.31;;;18.25;69.37
11345;BME280;5727;42.600;23.028;2022-11-02T10:10:13;94256.97;;;18.50;66.60
11345;BME280;5727;42.600;23.028;2022-11-02T10:12:49;94249.63;;;18.70;65.84
11345;BME280;5727;42.600;23.028;2022-11-02T10:15:24;94248.63;;;18.81;65.94
11345;BME280;5727;42.600;23.028;2022-11-02T10:17:55;94247.59;;;18.93;63.02
11345;BME280;5727;42.600;23.028;2022-11-02T10:20:25;94240.09;;;19.02;61.51
11345;BME280;5727;42.600;23.028;2022-11-02T10:22:54;94240.59;;;19.11;58.52
11345;BME280;5727;42.600;23.028;2022-11-02T10:25:24;94227.41;;;19.25;58.45
11345;BME280;5727;42.600;23.028;2022-11-02T10:27:58;94230.97;;;19.36;57.73
11345;BME280;5727;42.600;23.028;2022-11-02T10:30:29;94227.19;;;19.41;56.74
11345;BME280;5727;42.600;23.028;2022-11-02T10:32:55;94221.13;;;19.40;55.11
11345;BME280;5727;42.600;23.028;2022-11-02T10:35:29;94212.44;;;19.47;52.84
11345;BME280;5727;42.600;23.028;2022-11-02T10:38:09;94204.59;;;19.61;45.48
11345;BME280;5727;42.600;23.028;2022-11-02T10:40:59;94204.69;;;19.78;46.87
11345;BME280;5727;42.600;23.028;2022-11-02T10:43:38;94208.94;;;19.90;48.00
11345;BME280;5727;42.600;23.028;2022-11-02T10:46:19;94196.09;;;20.06;47.20
11345;BME280;5727;42.600;23.028;2022-11-02T10:48:54;94191.97;;;20.16;48.03
11345;BME280;5727;42.600;23.028;2022-11-02T10:51:27;94187.50;;;20.27;46.84
11345;BME280;5727;42.600;23.028;2022-11-02T10:53:55;94189.41;;;20.37;46.82
11345;BME280;5727;42.600;23.028;2022-11-02T10:56:24;94181.50;;;20.47;46.96
11345;BME280;5727;42.600;23.028;2022-11-02T10:58:59;94181.13;;;20.56;45.70
11345;BME280;5727;42.600;23.028;2022-11-02T11:01:29;94177.00;;;20.69;45.19
11345;BME280;5727;42.600;23.028;2022-11-02T11:03:58;94172.44;;;20.80;45.18
11345;BME280;5727;42.600;23.028;2022-11-02T11:06:28;94168.28;;;20.89;43.90
11345;BME280;5727;42.600;23.028;2022-11-02T11:09:00;94164.09;;;20.95;43.93
11345;BME280;5727;42.600;23.028;2022-11-02T11:11:29;94164.50;;;21.01;43.37
11345;BME280;5727;42.600;23.028;2022-11-02T11:14:01;94164.88;;;21.14;43.83
11345;BME280;5727;42.600;23.028;2022-11-02T11:16:34;94156.13;;;21.27;42.92
11345;BME280;5727;42.600;23.028;2022-11-02T11:19:03;94154.59;;;21.33;41.41
11345;BME280;5727;42.600;23.028;2022-11-02T11:21:35;94152.31;;;21.39;41.23
11345;BME280;5727;42.600;23.028;2022-11-02T11:24:20;94148.50;;;21.47;41.46
11345;BME280;5727;42.600;23.028;2022-11-02T11:27:02;94138.59;;;21.54;41.83
11345;BME280;5727;42.600;23.028;2022-11-02T11:29:32;94138.56;;;21.61;40.51
11345;BME280;5727;42.600;23.028;2022-11-02T11:32:00;94129.81;;;21.64;40.14
11345;BME280;5727;42.600;23.028;2022-11-02T11:34:30;94135.91;;;21.68;40.94
11345;BME280;5727;42.600;23.028;2022-11-02T11:37:08;94129.75;;;21.78;39.83
11345;BME280;5727;42.600;23.028;2022-11-02T11:39:35;94126.34;;;21.85;38.91
11345;BME280;5727;42.600;23.028;2022-11-02T11:42:04;94126.34;;;21.89;38.06
11345;BME280;5727;42.600;23.028;2022-11-02T11:44:43;94121.38;;;21.98;38.66
11345;BME280;5727;42.600;23.028;2022-11-02T11:47:11;94124.75;;;22.09;36.67
11345;BME280;5727;42.600;23.028;2022-11-02T11:49:46;94117.53;;;22.09;36.38
11345;BME280;5727;42.600;23.028;2022-11-02T11:52:17;94107.94;;;22.19;34.96
11345;BME280;5727;42.600;23.028;2022-11-02T11:54:52;94108.31;;;22.17;35.37
11345;BME280;5727;42.600;23.028;2022-11-02T11:57:24;94111.00;;;22.14;37.14
11345;BME280;5727;42.600;23.028;2022-11-02T11:59:54;94101.81;;;22.22;37.00
11345;BME280;5727;42.600;23.028;2022-11-02T12:02:25;94097.22;;;22.26;36.16
11345;BME280;5727;42.600;23.028;2022-11-02T12:04:58;94096.06;;;22.30;35.58
11345;BME280;5727;42.600;23.028;2022-11-02T12:08:00;94094.91;;;22.31;36.70
11345;BME280;5727;42.600;23.028;2022-11-02T12:10:45;94087.94;;;22.51;36.47
11345;BME280;5727;42.600;23.028;2022-11-02T12:13:30;94080.25;;;22.64;33.79
11345;BME280;5727;42.600;23.028;2022-11-02T12:16:13;94080.59;;;23.17;33.15
11345;BME280;5727;42.600;23.028;2022-11-02T12:18:58;94075.59;;;24.84;30.73
11345;BME280;5727;42.600;23.028;2022-11-02T12:21:37;94077.75;;;26.41;28.14
11345;BME280;5727;42.600;23.028;2022-11-02T12:27:06;94068.69;;;28.08;25.44
11345;BME280;5727;42.600;23.028;2022-11-02T12:29:56;94068.47;;;28.94;24.54
11345;BME280;5727;42.600;23.028;2022-11-02T12:32:40;94063.03;;;29.66;23.19
11345;BME280;5727;42.600;23.028;2022-11-02T12:35:23;94055.19;;;30.45;22.38
11345;BME280;5727;42.600;23.028;2022-11-02T12:38:03;94051.53;;;31.10;20.99
11345;BME280;5727;42.600;23.028;2022-11-02T12:40:46;94043.47;;;32.18;21.10
11345;BME280;5727;42.600;23.028;2022-11-02T12:43:32;94051.25;;;32.53;19.98
11345;BME280;5727;42.600;23.028;2022-11-02T12:46:09;94040.41;;;32.85;19.87
11345;BME280;5727;42.600;23.028;2022-11-02T12:48:47;94040.44;;;32.44;19.20
11345;BME280;5727;42.600;23.028;2022-11-02T12:51:20;94038.78;;;32.46;19.48
11345;BME280;5727;42.600;23.028;2022-11-02T12:53:53;94034.06;;;32.56;19.12
11345;BME280;5727;42.600;23.028;2022-11-02T12:56:24;94035.34;;;33.35;19.16
11345;BME280;5727;42.600;23.028;2022-11-02T12:58:56;94029.19;;;33.72;18.59
11345;BME280;5727;42.600;23.028;2022-11-02T13:01:27;94023.75;;;34.10;18.27
11345;BME280;5727;42.600;23.028;2022-11-02T13:04:00;94025.81;;;34.30;18.16
11345;BME280;5727;42.600;23.028;2022-11-02T13:06:33;94026.47;;;34.40;18.11
11345;BME280;5727;42.600;23.028;2022-11-02T13:09:06;94021.50;;;34.53;18.20
11345;BME280;5727;42.600;23.028;2022-11-02T13:11:38;94024.69;;;34.37;17.72
11345;BME280;5727;42.600;23.028;2022-11-02T13:14:11;94022.63;;;34.32;17.94
11345;BME280;5727;42.600;23.028;2022-11-02T13:16:42;94021.69;;;33.67;18.09
11345;BME280;5727;42.600;23.028;2022-11-02T13:19:16;94026.91;;;33.09;18.19
11345;BME280;5727;42.600;23.028;2022-11-02T13:21:47;94017.22;;;32.42;18.07